createdAt,value
2022-08-28T00:02:24.680Z,100789.47
2022-08-28T00:04:51.802Z,100784.66
2022-08-28T00:07:18.643Z,100787.97
2022-08-28T00:09:45.297Z,100786.34
2022-08-28T00:12:12.480Z,100786.13
2022-08-28T00:14:39.277Z,100792.41
2022-08-28T00:17:06.144Z,100794.28
2022-08-28T00:19:35.510Z,100786.72
2022-08-28T00:22:06.360Z,100788.59
2022-08-28T00:24:33.864Z,100798.44
2022-08-28T00:27:18.589Z,100795.31
2022-08-28T00:29:45.285Z,100789.69
2022-08-28T00:32:11.830Z,100795.13
2022-08-28T00:34:38.909Z,100793.66
2022-08-28T00:37:05.938Z,100795.56
2022-08-28T00:39:32.637Z,100793.66
2022-08-28T00:41:59.244Z,100797.03
2022-08-28T00:44:28.705Z,100800.59
2022-08-28T00:46:57.370Z,100791.38
2022-08-28T00:49:27.462Z,100801.41
2022-08-28T00:52:12.746Z,100795.16
2022-08-28T00:54:39.162Z,100790.97
2022-08-28T00:57:09.892Z,100787.63
2022-08-28T00:59:36.577Z,100794.97
2022-08-28T01:02:03.945Z,100796.63
2022-08-28T01:04:32.722Z,100789.72
2022-08-28T01:10:51.453Z,100796.63
2022-08-28T01:13:18.999Z,100795.16
2022-08-28T01:15:46.071Z,100797.22
2022-08-28T01:18:17.685Z,100790.34
2022-08-28T01:20:51.592Z,100790.56
2022-08-28T01:23:49.449Z,100796.41
2022-08-28T01:26:15.936Z,100790.97
2022-08-28T01:28:42.411Z,100787.22
2022-08-28T01:31:11.696Z,100796.41
2022-08-28T01:33:42.609Z,100797.22
2022-08-28T01:36:12.011Z,100794.31
2022-08-28T01:38:40.725Z,100793.47
2022-08-28T01:41:07.366Z,100804.34
2022-08-28T01:43:34.123Z,100793.66
2022-08-28T01:46:04.547Z,100800.34
2022-08-28T01:48:36.213Z,100793.91
2022-08-28T01:51:03.269Z,100793.25
2022-08-28T01:53:32.514Z,100790.53
2022-08-28T01:56:04.496Z,100786.75
2022-08-28T01:58:36.045Z,100784.28
2022-08-28T02:01:08.620Z,100790.94
2022-08-28T02:03:35.113Z,100786.16
2022-08-28T02:06:01.736Z,100788.47
2022-08-28T02:08:28.224Z,100797.84
2022-08-28T02:10:54.691Z,100794.31
2022-08-28T02:13:22.226Z,100797.22
2022-08-28T02:15:52.318Z,100796.81
2022-08-28T02:18:18.945Z,100793.06
2022-08-28T02:20:45.443Z,100794.91
2022-08-28T02:23:12.610Z,100799.53
2022-08-28T02:25:39.543Z,100807.88
2022-08-28T02:28:06.106Z,100799.53
2022-08-28T02:30:33.094Z,100809.31
2022-08-28T02:32:59.665Z,100807.66
2022-08-28T02:35:26.141Z,100805.19
2022-08-28T02:37:54.563Z,100809.13
2022-08-28T02:40:24.601Z,100810.63
2022-08-28T02:42:52.111Z,100812.69
2022-08-28T02:45:19.918Z,100806.84
2022-08-28T02:47:47.923Z,100809.78
2022-08-28T02:50:17.193Z,100808.09
2022-08-28T02:52:44.019Z,100805.19
2022-08-28T02:55:12.406Z,100808.75
2022-08-28T02:57:38.938Z,100808.09
2022-08-28T03:00:08.148Z,100813.34
2022-08-28T03:02:34.719Z,100809.56
2022-08-28T03:05:01.273Z,100815.66
2022-08-28T03:07:29.210Z,100815.22
2022-08-28T03:09:56.059Z,100810.03
2022-08-28T03:12:25.767Z,100810.84
2022-08-28T03:14:54.253Z,100807.72
2022-08-28T03:17:22.150Z,100806.03
2022-08-28T03:19:50.194Z,100803.72
2022-08-28T03:22:39.463Z,100808.53
2022-08-28T03:25:07.049Z,100810.22
2022-08-28T03:27:33.982Z,100802.47
2022-08-28T03:30:01.842Z,100812.69
2022-08-28T03:32:29.448Z,100816.66
2022-08-28T03:34:55.938Z,100821.28
2022-08-28T03:37:22.456Z,100812.31
2022-08-28T03:39:49.233Z,100811.91
2022-08-28T03:42:15.812Z,100813.56
2022-08-28T03:44:42.262Z,100817.69
2022-08-28T03:47:09.067Z,100820.59
2022-08-28T03:49:36.689Z,100823.53
2022-08-28T03:52:04.050Z,100813.94
2022-08-28T03:54:31.614Z,100814.97
2022-08-28T03:56:58.748Z,100822.06
2022-08-28T03:59:26.697Z,100814.34
2022-08-28T04:01:58.176Z,100828.31
2022-08-28T04:04:24.623Z,100836.88
2022-08-28T04:06:51.085Z,100824.78
2022-08-28T04:09:17.548Z,100833.56
2022-08-28T04:11:44.032Z,100835.84
2022-08-28T04:14:12.532Z,100840.88
2022-08-28T04:16:39.211Z,100841.47
2022-08-28T04:19:05.899Z,100843.59
2022-08-28T04:21:32.403Z,100841.91
2022-08-28T04:23:59.021Z,100844.81
2022-08-28T04:26:27.108Z,100847.72
2022-08-28T04:28:55.278Z,100855.66
2022-08-28T04:31:32.158Z,100855.00
2022-08-28T04:34:01.762Z,100854.59
2022-08-28T04:36:28.919Z,100863.16
2022-08-28T04:38:57.682Z,100874.00
2022-08-28T04:41:24.182Z,100877.75
2022-08-28T04:43:52.742Z,100878.38
2022-08-28T04:46:19.574Z,100875.88
2022-08-28T04:48:46.132Z,100872.75
2022-08-28T04:51:15.056Z,100876.28
2022-08-28T04:53:42.419Z,100867.78
2022-08-28T04:56:11.682Z,100870.72
2022-08-28T04:58:39.553Z,100865.69
2022-08-28T05:01:09.216Z,100877.16
2022-08-28T05:03:35.801Z,100871.34
2022-08-28T05:06:03.617Z,100867.34
2022-08-28T05:08:31.323Z,100874.88
2022-08-28T05:10:58.937Z,100878.63
2022-08-28T05:13:25.665Z,100878.66
2022-08-28T05:15:52.535Z,100879.09
2022-08-28T05:18:22.221Z,100881.75
2022-08-28T05:20:49.010Z,100883.19
2022-08-28T05:23:16.567Z,100885.03
2022-08-28T05:25:46.402Z,100887.09
2022-08-28T05:28:14.633Z,100885.19
2022-08-28T05:30:41.997Z,100882.91
2022-08-28T05:33:09.675Z,100892.97
2022-08-28T05:35:38.584Z,100892.75
2022-08-28T05:38:06.251Z,100898.16
2022-08-28T05:40:33.848Z,100903.16
2022-08-28T05:43:00.426Z,100897.66
2022-08-28T05:45:26.934Z,100900.56
2022-08-28T05:47:54.041Z,100912.06
2022-08-28T05:50:20.607Z,100903.66
2022-08-28T05:52:47.434Z,100906.03
2022-08-28T05:55:14.011Z,100905.69
2022-08-28T05:57:41.398Z,100902.50
2022-08-28T06:00:12.630Z,100902.75
2022-08-28T06:02:40.532Z,100904.31
2022-08-28T06:05:07.699Z,100905.78
2022-08-28T06:07:34.967Z,100903.34
2022-08-28T06:10:01.722Z,100912.31
2022-08-28T06:12:28.192Z,100913.75
2022-08-28T06:14:54.798Z,100910.25
2022-08-28T06:17:23.862Z,100903.78
2022-08-28T06:19:50.943Z,100905.06
2022-08-28T06:22:18.434Z,100911.31
2022-08-28T06:24:44.938Z,100908.38
2022-08-28T06:27:11.464Z,100903.38
2022-08-28T06:29:37.992Z,100914.66
2022-08-28T06:32:04.737Z,100914.25
2022-08-28T06:34:31.461Z,100917.31
2022-08-28T06:36:57.953Z,100920.88
2022-08-28T06:39:24.512Z,100925.66
2022-08-28T06:41:51.033Z,100920.06
2022-08-28T06:44:19.934Z,100919.25
2022-08-28T06:46:51.672Z,100925.72
2022-08-28T06:49:18.599Z,100927.63
2022-08-28T06:51:45.152Z,100925.31
2022-08-28T06:54:11.792Z,100933.91
2022-08-28T06:56:38.561Z,100933.28
2022-08-28T06:59:05.121Z,100939.53
2022-08-28T07:01:35.046Z,100948.94
2022-08-28T07:04:07.673Z,100950.53
2022-08-28T07:06:39.403Z,100949.47
2022-08-28T07:09:09.501Z,100951.34
2022-08-28T07:11:36.952Z,100956.78
2022-08-28T07:14:04.481Z,100958.94
2022-08-28T07:16:34.957Z,100953.13
2022-08-28T07:19:04.757Z,100958.78
2022-08-28T07:21:33.241Z,100956.28
2022-08-28T07:24:06.386Z,100968.00
2022-08-28T07:26:32.886Z,100966.94
2022-08-28T07:29:10.898Z,100966.97
2022-08-28T07:31:41.030Z,100969.06
2022-08-28T07:34:09.176Z,100969.06
2022-08-28T07:36:35.948Z,100972.00
2022-08-28T07:39:02.889Z,100975.69
2022-08-28T07:41:32.169Z,100989.56
2022-08-28T07:44:17.948Z,100983.88
2022-08-28T07:46:45.769Z,100982.88
2022-08-28T07:49:15.521Z,100992.47
2022-08-28T07:51:41.974Z,100979.88
2022-08-28T07:54:11.215Z,100987.44
2022-08-28T07:56:43.657Z,100983.69
2022-08-28T07:59:11.648Z,100989.97
2022-08-28T08:01:44.087Z,100990.13
2022-08-28T08:04:13.232Z,100996.63
2022-08-28T08:06:41.196Z,100988.94
2022-08-28T08:09:09.675Z,100995.00
2022-08-28T08:11:36.218Z,100990.25
2022-08-28T08:14:04.852Z,100994.44
2022-08-28T08:16:35.517Z,101007.84
2022-08-28T08:19:02.624Z,100998.88
2022-08-28T08:21:30.577Z,101003.56
2022-08-28T08:23:58.300Z,101003.78
2022-08-28T08:26:28.105Z,101011.13
2022-08-28T08:28:55.939Z,101004.03
2022-08-28T08:31:26.670Z,101005.50
2022-08-28T08:33:56.551Z,101001.34
2022-08-28T08:36:25.269Z,101010.91
2022-08-28T08:38:59.376Z,101002.72
2022-08-28T08:41:33.768Z,101014.25
2022-08-28T08:44:17.739Z,101015.50
2022-08-28T08:47:03.518Z,101013.78
2022-08-28T08:49:35.904Z,101019.69
2022-08-28T08:52:05.309Z,101027.47
2022-08-28T08:54:32.050Z,101028.72
2022-08-28T08:57:02.213Z,101022.94
2022-08-28T08:59:33.344Z,101022.88
2022-08-28T09:02:10.521Z,101023.41
2022-08-28T09:05:01.614Z,101022.09
2022-08-28T09:07:37.993Z,101023.56
2022-08-28T09:10:08.454Z,101031.97
2022-08-28T09:13:12.643Z,101023.25
2022-08-28T09:15:42.622Z,101027.69
2022-08-28T09:18:18.173Z,101032.41
2022-08-28T09:20:50.050Z,101037.84
2022-08-28T09:23:16.549Z,101036.34
2022-08-28T09:26:01.743Z,101046.00
2022-08-28T09:28:37.035Z,101044.91
2022-08-28T09:31:13.335Z,101040.06
2022-08-28T09:33:43.113Z,101039.06
2022-08-28T09:36:23.287Z,101035.69
2022-08-28T09:39:14.742Z,101038.81
2022-08-28T09:42:11.113Z,101039.41
2022-08-28T09:45:09.037Z,101038.19
2022-08-28T09:47:46.369Z,101053.88
2022-08-28T09:50:30.337Z,101049.53
2022-08-28T09:53:19.302Z,101050.66
2022-08-28T09:56:10.996Z,101047.78
2022-08-28T09:58:57.197Z,101060.75
2022-08-28T10:01:29.399Z,101062.19
2022-08-28T10:04:22.441Z,101064.56
2022-08-28T10:06:51.975Z,101064.84
2022-08-28T10:09:39.462Z,101072.38
2022-08-28T10:12:40.183Z,101063.19
2022-08-28T10:15:14.967Z,101065.91
2022-08-28T10:18:06.665Z,101069.88
2022-08-28T10:20:50.191Z,101068.22
2022-08-28T10:23:42.650Z,101067.56
2022-08-28T10:26:21.565Z,101076.59
2022-08-28T10:29:18.710Z,101079.94
2022-08-28T10:31:55.309Z,101074.50
2022-08-28T10:34:30.731Z,101079.16
2022-08-28T10:37:10.098Z,101076.72
2022-08-28T10:39:53.742Z,101090.75
2022-08-28T10:42:59.216Z,101092.69
2022-08-28T10:45:26.250Z,101092.81
2022-08-28T10:47:58.803Z,101093.88
2022-08-28T10:50:30.057Z,101099.16
2022-08-28T10:53:17.187Z,101093.97
2022-08-28T10:55:49.870Z,101096.56
2022-08-28T10:58:25.078Z,101107.00
2022-08-28T11:00:56.174Z,101108.50
2022-08-28T11:03:35.522Z,101103.03
2022-08-28T11:06:11.327Z,101103.75
2022-08-28T11:08:39.681Z,101102.44
2022-08-28T11:11:13.297Z,101107.66
2022-08-28T11:13:45.885Z,101110.13
2022-08-28T11:16:23.403Z,101113.13
2022-08-28T11:19:04.479Z,101108.25
2022-08-28T11:21:41.195Z,101114.47
2022-08-28T11:24:21.337Z,101116.81
2022-08-28T11:27:00.430Z,101116.91
2022-08-28T11:29:57.943Z,101123.31
2022-08-28T11:32:33.707Z,101114.94
2022-08-28T11:35:02.983Z,101121.53
2022-08-28T11:37:40.506Z,101119.31
2022-08-28T11:40:28.525Z,101123.84
2022-08-28T11:43:16.932Z,101124.25
2022-08-28T11:45:46.820Z,101119.94
2022-08-28T11:48:36.305Z,101119.13
2022-08-28T11:51:17.718Z,101117.16
2022-08-28T11:54:03.873Z,101119.75
2022-08-28T11:56:50.307Z,101112.84
2022-08-28T11:59:22.883Z,101115.97
2022-08-28T12:01:49.831Z,101121.00
2022-08-28T12:04:20.106Z,101118.97
2022-08-28T12:06:54.833Z,101108.84
2022-08-28T12:09:40.229Z,101110.78
2022-08-28T12:12:21.867Z,101116.16
2022-08-28T12:14:48.288Z,101113.41
2022-08-28T12:17:15.207Z,101107.41
2022-08-28T12:19:51.169Z,101109.84
2022-08-28T12:22:25.102Z,101110.50
2022-08-28T12:25:01.170Z,101112.13
2022-08-28T12:27:28.792Z,101120.72
2022-08-28T12:29:57.630Z,101118.94
2022-08-28T12:32:33.140Z,101118.53
2022-08-28T12:34:59.591Z,101120.59
2022-08-28T12:37:50.823Z,101118.69
2022-08-28T12:40:50.151Z,101114.63
2022-08-28T12:43:40.912Z,101117.59
2022-08-28T12:46:19.979Z,101115.53
2022-08-28T12:48:52.328Z,101114.63
2022-08-28T12:51:25.354Z,101112.16
2022-08-28T12:53:58.419Z,101117.00
2022-08-28T12:56:29.998Z,101109.03
2022-08-28T12:58:56.485Z,101110.50
2022-08-28T13:01:33.951Z,101117.00
2022-08-28T13:04:19.084Z,101105.06
2022-08-28T13:06:45.748Z,101121.72
2022-08-28T13:09:24.559Z,101109.25
2022-08-28T13:11:51.577Z,101109.66
2022-08-28T13:14:37.593Z,101109.63
2022-08-28T13:17:04.744Z,101104.22
2022-08-28T13:19:33.077Z,101106.09
2022-08-28T13:22:02.582Z,101095.84
2022-08-28T13:24:39.490Z,101092.84
2022-08-28T13:27:16.430Z,101095.72
2022-08-28T13:30:20.760Z,101098.03
2022-08-28T13:33:14.729Z,101091.22
2022-08-28T13:35:42.237Z,101084.53
2022-08-28T13:38:12.389Z,101084.31
2022-08-28T13:40:57.974Z,101088.53
2022-08-28T13:43:28.768Z,101092.47
2022-08-28T13:45:55.589Z,101091.66
2022-08-28T13:48:25.839Z,101082.88
2022-08-28T13:51:10.840Z,101077.84
2022-08-28T13:53:41.201Z,101075.75
2022-08-28T13:56:07.703Z,101076.16
2022-08-28T13:58:34.220Z,101077.00
2022-08-28T14:01:01.761Z,101074.91
2022-08-28T14:03:38.542Z,101074.91
2022-08-28T14:06:12.214Z,101073.66
2022-08-28T14:08:40.840Z,101069.88
2022-08-28T14:11:08.302Z,101071.97
2022-08-28T14:13:39.836Z,101074.06
2022-08-28T14:16:08.044Z,101070.50
2022-08-28T14:18:34.995Z,101066.09
2022-08-28T14:21:05.159Z,101066.91
2022-08-28T14:23:32.188Z,101062.75
2022-08-28T14:25:58.708Z,101060.28
2022-08-28T14:28:25.176Z,101058.16
2022-08-28T14:30:52.741Z,101064.19
2022-08-28T14:33:20.751Z,101057.72
2022-08-28T14:35:48.842Z,101059.41
2022-08-28T14:38:15.767Z,101054.50
2022-08-28T14:40:44.436Z,101052.72
2022-08-28T14:43:12.241Z,101053.94
2022-08-28T14:45:44.660Z,101053.13
2022-08-28T14:48:11.449Z,101058.16
2022-08-28T14:50:44.038Z,101052.31
2022-08-28T14:53:11.743Z,101060.25
2022-08-28T14:55:41.004Z,101038.09
2022-08-28T14:58:07.624Z,101046.22
2022-08-28T15:00:39.560Z,101046.84
2022-08-28T15:03:06.482Z,101048.50
2022-08-28T15:05:34.059Z,101052.72
2022-08-28T15:08:00.596Z,101048.56
2022-08-28T15:10:27.071Z,101046.84
2022-08-28T15:12:53.594Z,101048.75
2022-08-28T15:15:22.899Z,101043.06
2022-08-28T15:17:49.486Z,101044.13
2022-08-28T15:20:16.075Z,101037.63
2022-08-28T15:22:42.952Z,101036.38
2022-08-28T15:25:09.680Z,101043.06
2022-08-28T15:27:36.536Z,101027.56
2022-08-28T15:30:04.631Z,101025.88
2022-08-28T15:32:31.243Z,101031.50
2022-08-28T15:34:57.795Z,101025.03
2022-08-28T15:37:24.431Z,101036.16
2022-08-28T15:40:09.469Z,101033.47
2022-08-28T15:42:36.015Z,101037.44
2022-08-28T15:45:02.499Z,101038.56
2022-08-28T15:47:30.123Z,101026.31
2022-08-28T15:49:57.095Z,101038.06
2022-08-28T15:52:24.749Z,101035.69
2022-08-28T15:54:51.343Z,101029.47
2022-08-28T15:57:19.662Z,101035.97
2022-08-28T15:59:50.649Z,101038.25
2022-08-28T16:02:24.945Z,101033.00
2022-08-28T16:04:52.567Z,101033.81
2022-08-28T16:07:20.826Z,101029.47
2022-08-28T16:09:47.834Z,101028.78
2022-08-28T16:12:14.488Z,101032.97
2022-08-28T16:14:41.151Z,101030.88
2022-08-28T16:17:10.849Z,101032.41
2022-08-28T16:19:39.683Z,101029.00
2022-08-28T16:22:06.761Z,101033.38
2022-08-28T16:24:33.670Z,101027.50
2022-08-28T16:27:00.318Z,101029.59
2022-08-28T16:29:26.814Z,101022.50
2022-08-28T16:31:53.410Z,101032.72
2022-08-28T16:34:20.244Z,101037.78
2022-08-28T16:36:48.172Z,101038.44
2022-08-28T16:39:14.873Z,101033.63
2022-08-28T16:41:42.084Z,101042.41
2022-08-28T16:44:09.008Z,101035.72
2022-08-28T16:46:35.528Z,101042.66
2022-08-28T16:49:02.555Z,101042.41
2022-08-28T16:51:29.761Z,101045.16
2022-08-28T16:53:56.533Z,101041.00
2022-08-28T16:56:26.540Z,101052.91
2022-08-28T16:58:53.412Z,101039.31
2022-08-28T17:01:22.056Z,101045.81
2022-08-28T17:03:51.870Z,101038.47
2022-08-28T17:06:23.304Z,101047.69
2022-08-28T17:08:55.927Z,101035.53
2022-08-28T17:11:24.434Z,101039.31
2022-08-28T17:13:51.134Z,101042.03
2022-08-28T17:16:20.478Z,101046.44
2022-08-28T17:18:48.377Z,101047.50
2022-08-28T17:21:38.317Z,101055.84
2022-08-28T17:24:05.074Z,101047.28
2022-08-28T17:26:31.539Z,101050.22
2022-08-28T17:28:58.130Z,101052.31
2022-08-28T17:31:24.767Z,101054.78
2022-08-28T17:33:51.534Z,101061.94
2022-08-28T17:36:21.338Z,101055.03
2022-08-28T17:39:00.213Z,101065.91
2022-08-28T17:41:27.378Z,101054.44
2022-08-28T17:43:53.982Z,101066.34
2022-08-28T17:46:20.536Z,101063.63
2022-08-28T17:48:54.491Z,101068.22
2022-08-28T17:51:42.091Z,101073.47
2022-08-28T17:54:10.174Z,101076.19
2022-08-28T17:56:36.650Z,101081.22
2022-08-28T17:59:04.200Z,101077.84
2022-08-28T18:01:30.714Z,101073.03
2022-08-28T18:04:01.058Z,101079.94
2022-08-28T18:06:27.611Z,101077.41
2022-08-28T18:08:54.491Z,101081.19
2022-08-28T18:11:20.987Z,101086.97
2022-08-28T18:13:47.597Z,101083.66
2022-08-28T18:16:14.394Z,101084.47
2022-08-28T18:18:41.856Z,101086.13
2022-08-28T18:21:12.523Z,101102.66
2022-08-28T18:23:39.865Z,101097.84
2022-08-28T18:26:08.139Z,101100.53
2022-08-28T18:28:36.113Z,101096.75
2022-08-28T18:31:05.617Z,101102.56
2022-08-28T18:33:33.322Z,101098.81
2022-08-28T18:36:00.010Z,101102.78
2022-08-28T18:38:34.976Z,101102.56
2022-08-28T18:41:05.647Z,101108.59
2022-08-28T18:43:32.318Z,101112.38
2022-08-28T18:46:00.827Z,101120.66
2022-08-28T18:48:27.845Z,101125.41
2022-08-28T18:50:54.588Z,101120.84
2022-08-28T18:53:22.289Z,101125.34
2022-08-28T18:55:52.789Z,101137.03
2022-08-28T18:58:20.434Z,101130.56
2022-08-28T19:00:47.024Z,101137.50
2022-08-28T19:03:14.559Z,101131.16
2022-08-28T19:05:41.724Z,101133.44
2022-08-28T19:08:08.223Z,101134.72
2022-08-28T19:10:36.865Z,101136.16
2022-08-28T19:13:04.561Z,101138.38
2022-08-28T19:15:31.861Z,101147.31
2022-08-28T19:18:00.434Z,101144.25
2022-08-28T19:20:28.232Z,101142.38
2022-08-28T19:22:55.845Z,101150.97
2022-08-28T19:25:28.399Z,101152.19
2022-08-28T19:27:59.786Z,101152.19
2022-08-28T19:30:28.951Z,101157.78
2022-08-28T19:32:55.716Z,101156.25
2022-08-28T19:35:24.479Z,101156.50
2022-08-28T19:37:52.110Z,101162.53
2022-08-28T19:40:19.915Z,101162.09
2022-08-28T19:42:46.587Z,101171.25
2022-08-28T19:45:14.862Z,101169.97
2022-08-28T19:47:41.520Z,101164.31
2022-08-28T19:50:10.339Z,101172.91
2022-08-28T19:52:38.890Z,101173.72
2022-08-28T19:55:06.721Z,101172.41
2022-08-28T19:57:33.838Z,101170.75
2022-08-28T20:00:00.773Z,101179.28
2022-08-28T20:02:28.494Z,101185.97
2022-08-28T20:04:55.502Z,101190.94
2022-08-28T20:07:23.070Z,101181.91
2022-08-28T20:09:49.513Z,101188.09
2022-08-28T20:12:16.090Z,101188.09
2022-08-28T20:14:42.606Z,101189.16
2022-08-28T20:17:09.528Z,101196.34
2022-08-28T20:19:36.356Z,101195.59
2022-08-28T20:22:03.899Z,101200.38
2022-08-28T20:24:30.534Z,101194.28
2022-08-28T20:26:57.370Z,101199.94
2022-08-28T20:29:24.234Z,101200.31
2022-08-28T20:31:51.295Z,101201.28
2022-08-28T20:34:19.293Z,101213.78
2022-08-28T20:36:46.110Z,101206.00
2022-08-28T20:39:12.737Z,101207.63
2022-08-28T20:41:40.407Z,101206.78
2022-08-28T20:44:09.237Z,101212.78
2022-08-28T20:46:40.760Z,101213.63
2022-08-28T20:49:10.409Z,101212.72
2022-08-28T20:51:55.621Z,101199.41
2022-08-28T20:54:33.630Z,101206.06
2022-08-28T20:57:03.518Z,101209.72
2022-08-28T20:59:39.413Z,101207.88
2022-08-28T21:02:10.442Z,101202.53
2022-08-28T21:04:38.846Z,101203.38
2022-08-28T21:07:05.910Z,101204.63
2022-08-28T21:09:42.360Z,101216.69
2022-08-28T21:12:19.820Z,101213.31
2022-08-28T21:14:51.552Z,101213.03
2022-08-28T21:17:22.601Z,101214.09
2022-08-28T21:19:57.389Z,101208.38
2022-08-28T21:22:23.899Z,101211.84
2022-08-28T21:24:50.398Z,101216.31
2022-08-28T21:27:18.448Z,101221.03
2022-08-28T21:29:45.800Z,101217.81
2022-08-28T21:32:12.401Z,101216.63
2022-08-28T21:34:38.945Z,101221.56
2022-08-28T21:37:06.295Z,101219.03
2022-08-28T21:39:32.812Z,101209.41
2022-08-28T21:41:59.285Z,101212.69
2022-08-28T21:44:25.768Z,101213.13
2022-08-28T21:46:52.305Z,101220.69
2022-08-28T21:49:18.972Z,101210.91
2022-08-28T21:51:45.643Z,101212.47
2022-08-28T21:54:12.132Z,101210.44
2022-08-28T21:56:38.627Z,101215.91
2022-08-28T21:59:05.139Z,101217.44
2022-08-28T22:01:31.687Z,101225.66
2022-08-28T22:03:58.394Z,101221.59
2022-08-28T22:06:26.396Z,101227.09
2022-08-28T22:08:53.866Z,101227.94
2022-08-28T22:11:24.730Z,101228.97
2022-08-28T22:13:52.494Z,101231.22
2022-08-28T22:16:19.620Z,101231.00
2022-08-28T22:18:46.701Z,101233.06
2022-08-28T22:21:33.515Z,101239.69
2022-08-28T22:24:00.136Z,101250.59
2022-08-28T22:26:26.925Z,101242.28
2022-08-28T22:28:53.608Z,101237.06
2022-08-28T22:31:20.611Z,101238.28
2022-08-28T22:33:47.944Z,101240.50
2022-08-28T22:36:14.468Z,101236.28
2022-08-28T22:38:41.402Z,101236.72
2022-08-28T22:41:13.626Z,101233.31
2022-08-28T22:43:40.229Z,101237.00
2022-08-28T22:46:08.273Z,101236.25
2022-08-28T22:48:35.505Z,101238.94
2022-08-28T22:51:08.997Z,101240.63
2022-08-28T22:53:36.234Z,101243.38
2022-08-28T22:56:03.551Z,101246.97
2022-08-28T22:58:32.657Z,101251.03
2022-08-28T23:01:02.064Z,101252.91
2022-08-28T23:03:28.754Z,101245.16
2022-08-28T23:05:55.530Z,101252.00
2022-08-28T23:08:22.041Z,101247.03
2022-08-28T23:10:59.024Z,101241.84
2022-08-28T23:13:26.268Z,101252.84
2022-08-28T23:15:52.845Z,101254.59
2022-08-28T23:18:20.310Z,101245.28
2022-08-28T23:20:46.887Z,101240.34
2022-08-28T23:23:17.080Z,101244.94
2022-08-28T23:25:43.952Z,101241.75
2022-08-28T23:28:10.485Z,101238.56
2022-08-28T23:30:38.863Z,101247.66
2022-08-28T23:33:08.406Z,101241.78
2022-08-28T23:35:36.311Z,101243.34
2022-08-28T23:38:03.582Z,101243.69
2022-08-28T23:40:30.602Z,101249.81
2022-08-28T23:42:58.030Z,101243.84
2022-08-28T23:45:26.038Z,101241.69
2022-08-28T23:47:53.948Z,101243.22
2022-08-28T23:50:23.258Z,101245.09
2022-08-28T23:52:50.478Z,101253.53
2022-08-28T23:55:18.680Z,101244.75
2022-08-28T23:57:45.735Z,101244.94
